createdAt,value
2017-01-26T00:00:09.946Z,0
2017-01-26T00:01:10.287Z,0
2017-01-26T00:02:11.009Z,0
2017-01-26T00:03:10.839Z,0
2017-01-26T00:04:09.985Z,0
2017-01-26T00:05:09.514Z,0
2017-01-26T00:06:11.061Z,0
2017-01-26T00:07:10.150Z,0
2017-01-26T00:08:10.075Z,0
2017-01-26T00:09:10.351Z,0
2017-01-26T00:10:10.186Z,0
2017-01-26T00:11:10.706Z,0
2017-01-26T00:12:11.706Z,0
2017-01-26T00:13:10.117Z,0
2017-01-26T00:14:10.266Z,0
2017-01-26T00:15:10.309Z,0
2017-01-26T00:16:11.088Z,0
2017-01-26T00:17:11.278Z,0
2017-01-26T00:18:11.294Z,0
2017-01-26T00:19:11.104Z,0
2017-01-26T00:20:10.746Z,0
2017-01-26T00:21:10.527Z,0
2017-01-26T00:22:09.711Z,0
2017-01-26T00:23:10.076Z,0
2017-01-26T00:24:09.873Z,0
2017-01-26T00:25:10.690Z,0
2017-01-26T00:26:11.245Z,0
2017-01-26T00:27:10.352Z,0
2017-01-26T00:28:12.332Z,0
2017-01-26T00:29:10.563Z,0
2017-01-26T00:30:10.559Z,0
2017-01-26T00:31:09.536Z,0
2017-01-26T00:32:10.149Z,0
2017-01-26T00:33:10.347Z,0
2017-01-26T00:34:10.135Z,0
2017-01-26T00:35:09.446Z,0
2017-01-26T00:36:11.134Z,0
2017-01-26T00:37:11.656Z,0
2017-01-26T00:38:09.878Z,0
2017-01-26T00:39:10.388Z,0
2017-01-26T00:40:10.571Z,0
2017-01-26T00:41:10.338Z,0
2017-01-26T00:42:10.192Z,0
2017-01-26T00:43:10.870Z,0
2017-01-26T00:44:10.719Z,0
2017-01-26T00:45:10.885Z,0
2017-01-26T00:46:11.523Z,0
2017-01-26T00:47:11.106Z,0
2017-01-26T00:48:11.188Z,0
2017-01-26T00:49:10.855Z,0
2017-01-26T00:50:10.811Z,0
2017-01-26T00:51:10.304Z,0
2017-01-26T00:52:10.790Z,0
2017-01-26T00:53:10.766Z,0
2017-01-26T00:54:09.987Z,0
2017-01-26T00:55:10.731Z,0
2017-01-26T00:56:11.045Z,0
2017-01-26T00:57:10.972Z,0
2017-01-26T00:58:11.438Z,0
2017-01-26T00:59:12.019Z,0
2017-01-26T01:00:11.196Z,0
2017-01-26T01:01:10.562Z,0
2017-01-26T01:02:10.966Z,0
2017-01-26T01:03:11.503Z,0
2017-01-26T01:04:10.132Z,0
2017-01-26T01:05:10.690Z,0
2017-01-26T01:06:11.150Z,0
2017-01-26T01:07:11.656Z,0
2017-01-26T01:08:11.617Z,0
2017-01-26T01:09:11.341Z,0
2017-01-26T01:10:11.104Z,0
2017-01-26T01:11:12.329Z,0
2017-01-26T01:12:10.848Z,0
2017-01-26T01:13:12.366Z,0
2017-01-26T01:14:11.345Z,0
2017-01-26T01:15:10.273Z,0
2017-01-26T01:16:10.474Z,0
2017-01-26T01:17:12.169Z,0
2017-01-26T01:18:10.994Z,0
2017-01-26T01:19:10.507Z,0
2017-01-26T01:20:11.935Z,0
2017-01-26T01:21:10.993Z,0
2017-01-26T01:22:11.513Z,0
2017-01-26T01:23:12.085Z,0
2017-01-26T01:24:11.617Z,0
2017-01-26T01:25:11.065Z,0
2017-01-26T01:26:12.000Z,0
2017-01-26T01:27:10.828Z,0
2017-01-26T01:28:11.871Z,0
2017-01-26T01:29:10.890Z,0
2017-01-26T01:30:10.792Z,0
2017-01-26T01:31:10.910Z,0
2017-01-26T01:32:10.679Z,0
2017-01-26T01:33:11.630Z,0
2017-01-26T01:34:10.434Z,0
2017-01-26T01:35:11.548Z,0
2017-01-26T01:36:10.387Z,0
2017-01-26T01:37:11.288Z,0
2017-01-26T01:38:10.533Z,0
2017-01-26T01:39:11.353Z,0
2017-01-26T01:40:10.764Z,0
2017-01-26T01:41:10.985Z,0
2017-01-26T01:42:11.126Z,0
2017-01-26T01:43:10.569Z,0
2017-01-26T01:44:11.051Z,0
2017-01-26T01:45:11.267Z,0
2017-01-26T01:46:11.779Z,0
2017-01-26T01:47:10.322Z,0
2017-01-26T01:48:12.437Z,0
2017-01-26T01:49:10.581Z,0
2017-01-26T01:50:11.798Z,0
2017-01-26T01:51:11.623Z,0
2017-01-26T01:52:11.541Z,0
2017-01-26T01:53:11.455Z,0
2017-01-26T01:54:11.084Z,0
2017-01-26T01:55:11.512Z,0
2017-01-26T01:56:10.899Z,0
2017-01-26T01:57:11.933Z,0
2017-01-26T01:58:11.100Z,0
2017-01-26T01:59:12.816Z,0
2017-01-26T02:00:11.527Z,0
2017-01-26T02:01:12.326Z,0
2017-01-26T02:02:11.116Z,0
2017-01-26T02:03:11.823Z,0
2017-01-26T02:04:11.088Z,0
2017-01-26T02:05:11.484Z,0
2017-01-26T02:06:11.246Z,0
2017-01-26T02:07:11.700Z,0
2017-01-26T02:08:12.017Z,0
2017-01-26T02:09:11.386Z,0
2017-01-26T02:10:12.517Z,0
2017-01-26T02:11:11.028Z,0
2017-01-26T02:12:12.979Z,0
2017-01-26T02:13:10.605Z,0
2017-01-26T02:14:10.533Z,0
2017-01-26T02:15:12.979Z,0
2017-01-26T02:16:11.208Z,0
2017-01-26T02:17:12.156Z,0
2017-01-26T02:18:11.949Z,0
2017-01-26T02:19:11.455Z,0
2017-01-26T02:20:11.955Z,0
2017-01-26T02:21:11.730Z,0
2017-01-26T02:22:10.946Z,0
2017-01-26T02:23:11.840Z,0
2017-01-26T02:24:11.478Z,0
2017-01-26T02:25:10.893Z,0
2017-01-26T02:26:11.200Z,0
2017-01-26T02:27:11.820Z,0
2017-01-26T02:28:13.200Z,0
2017-01-26T02:29:12.364Z,0
2017-01-26T02:30:12.121Z,0
2017-01-26T02:31:12.022Z,0
2017-01-26T02:32:11.073Z,0
2017-01-26T02:33:11.870Z,0
2017-01-26T02:34:12.970Z,0
2017-01-26T02:35:12.782Z,0
2017-01-26T02:36:11.435Z,0
2017-01-26T02:37:12.593Z,0
2017-01-26T02:38:11.816Z,0
2017-01-26T02:39:12.759Z,0
2017-01-26T02:40:11.829Z,0
2017-01-26T02:41:11.256Z,0
2017-01-26T02:42:11.497Z,0
2017-01-26T02:43:10.988Z,0
2017-01-26T02:44:12.203Z,0
2017-01-26T02:45:12.029Z,0
2017-01-26T02:46:12.552Z,0
2017-01-26T02:47:12.582Z,0
2017-01-26T02:48:11.415Z,0
2017-01-26T02:49:11.341Z,0
2017-01-26T02:50:12.001Z,0
2017-01-26T02:51:11.550Z,0
2017-01-26T02:52:12.911Z,0
2017-01-26T02:53:12.116Z,0
2017-01-26T02:54:11.665Z,0
2017-01-26T02:55:12.838Z,0
2017-01-26T02:56:13.312Z,0
2017-01-26T02:57:13.553Z,0
2017-01-26T02:58:13.315Z,0
2017-01-26T02:59:13.325Z,0
2017-01-26T03:00:11.338Z,0
2017-01-26T03:01:11.508Z,0
2017-01-26T03:02:12.806Z,0
2017-01-26T03:03:12.801Z,0
2017-01-26T03:04:11.348Z,0
2017-01-26T03:05:12.281Z,0
2017-01-26T03:06:11.815Z,0
2017-01-26T03:07:12.858Z,0
2017-01-26T03:08:13.485Z,0
2017-01-26T03:09:12.564Z,0
2017-01-26T03:10:12.251Z,0
2017-01-26T03:11:12.371Z,0
2017-01-26T03:12:12.468Z,0
2017-01-26T03:13:11.552Z,0
2017-01-26T03:14:12.864Z,0
2017-01-26T03:15:12.955Z,0
2017-01-26T03:16:12.331Z,0
2017-01-26T03:17:12.090Z,0
2017-01-26T03:18:13.086Z,0
2017-01-26T03:19:13.321Z,0
2017-01-26T03:20:15.484Z,0
2017-01-26T03:21:11.797Z,0
2017-01-26T03:22:12.967Z,0
2017-01-26T03:23:12.119Z,0
2017-01-26T03:24:11.734Z,0
2017-01-26T03:25:12.062Z,0
2017-01-26T03:26:12.912Z,0
2017-01-26T03:27:14.002Z,0
2017-01-26T03:28:11.897Z,0
2017-01-26T03:29:13.518Z,0
2017-01-26T03:30:12.060Z,0
2017-01-26T03:31:13.342Z,0
2017-01-26T03:32:12.353Z,0
2017-01-26T03:33:11.320Z,0
2017-01-26T03:34:14.121Z,0
2017-01-26T03:35:12.802Z,0
2017-01-26T03:36:13.171Z,0
2017-01-26T03:37:13.250Z,0
2017-01-26T03:38:13.089Z,0
2017-01-26T03:39:13.462Z,0
2017-01-26T03:40:12.651Z,0
2017-01-26T03:41:11.451Z,0
2017-01-26T03:42:11.611Z,0
2017-01-26T03:43:12.444Z,0
2017-01-26T03:44:12.680Z,0
2017-01-26T03:45:13.237Z,0
2017-01-26T03:46:13.186Z,0
2017-01-26T03:47:13.582Z,0
2017-01-26T03:48:12.769Z,0
2017-01-26T03:49:13.332Z,0
2017-01-26T03:50:13.314Z,0
2017-01-26T03:51:12.376Z,0
2017-01-26T03:52:13.301Z,0
2017-01-26T03:53:13.458Z,0
2017-01-26T03:54:13.485Z,0
2017-01-26T03:55:12.472Z,0
2017-01-26T03:56:13.242Z,0
2017-01-26T03:57:12.360Z,0
2017-01-26T03:58:13.995Z,0
2017-01-26T03:59:12.572Z,0
2017-01-26T04:00:13.638Z,0
2017-01-26T04:01:12.401Z,0
2017-01-26T04:02:13.027Z,0
2017-01-26T04:03:13.497Z,0
2017-01-26T04:04:13.166Z,0
2017-01-26T04:05:13.362Z,0
2017-01-26T04:06:12.283Z,0
2017-01-26T04:07:13.945Z,0
2017-01-26T04:08:14.008Z,0
2017-01-26T04:09:14.162Z,0
2017-01-26T04:10:13.183Z,0
2017-01-26T04:11:13.324Z,0
2017-01-26T04:12:12.327Z,0
2017-01-26T04:13:12.873Z,0
2017-01-26T04:14:12.605Z,0
2017-01-26T04:15:12.792Z,0
2017-01-26T04:16:13.472Z,0
2017-01-26T04:17:13.229Z,0
2017-01-26T04:18:13.412Z,0
2017-01-26T04:19:12.792Z,0
2017-01-26T04:20:12.149Z,0
2017-01-26T04:21:13.604Z,0
2017-01-26T04:22:14.890Z,0
2017-01-26T04:23:14.022Z,0
2017-01-26T04:24:14.080Z,0
2017-01-26T04:25:14.381Z,0
2017-01-26T04:26:13.763Z,0
2017-01-26T04:27:12.679Z,0
2017-01-26T04:28:13.522Z,0
2017-01-26T04:29:15.224Z,0
2017-01-26T04:30:13.687Z,0
2017-01-26T04:31:15.305Z,0
2017-01-26T04:32:12.880Z,0
2017-01-26T04:33:13.549Z,0
2017-01-26T04:34:13.914Z,0
2017-01-26T04:35:13.750Z,0
2017-01-26T04:36:14.234Z,0
2017-01-26T04:37:13.062Z,0
2017-01-26T04:38:13.156Z,0
2017-01-26T04:39:13.561Z,0
2017-01-26T04:40:13.020Z,0
2017-01-26T04:41:13.623Z,0
2017-01-26T04:42:12.581Z,0
2017-01-26T04:43:13.981Z,0
2017-01-26T04:44:13.156Z,0
2017-01-26T04:45:13.740Z,0
2017-01-26T04:46:13.762Z,0
2017-01-26T04:47:13.483Z,0
2017-01-26T04:48:12.770Z,0
2017-01-26T04:49:13.967Z,0
2017-01-26T04:50:13.419Z,0
2017-01-26T04:51:13.587Z,0
2017-01-26T04:52:13.118Z,0
2017-01-26T04:53:12.738Z,0
2017-01-26T04:54:14.186Z,0
2017-01-26T04:55:13.381Z,0
2017-01-26T04:56:12.956Z,0
2017-01-26T04:57:14.045Z,0
2017-01-26T04:58:12.742Z,0
2017-01-26T04:59:14.167Z,0
2017-01-26T05:00:14.040Z,0
2017-01-26T05:01:14.745Z,0
2017-01-26T05:02:15.771Z,0
2017-01-26T05:03:13.809Z,0
2017-01-26T05:04:15.325Z,0
2017-01-26T05:05:14.887Z,0
2017-01-26T05:06:12.563Z,0
2017-01-26T05:07:13.172Z,0
2017-01-26T05:08:13.852Z,0
2017-01-26T05:09:13.709Z,0
2017-01-26T05:10:14.392Z,0
2017-01-26T05:11:14.430Z,0
2017-01-26T05:12:13.964Z,0
2017-01-26T05:13:12.489Z,0
2017-01-26T05:14:14.017Z,0
2017-01-26T05:15:12.949Z,0
2017-01-26T05:16:14.507Z,0
2017-01-26T05:17:15.072Z,0
2017-01-26T05:18:14.323Z,0
2017-01-26T05:19:14.291Z,0
2017-01-26T05:20:14.239Z,0
2017-01-26T05:21:14.943Z,0
2017-01-26T05:22:13.709Z,0
2017-01-26T05:23:13.955Z,0
2017-01-26T05:24:14.499Z,0
2017-01-26T05:25:14.528Z,0
2017-01-26T05:26:14.309Z,0
2017-01-26T05:27:13.164Z,0
2017-01-26T05:28:14.414Z,0
2017-01-26T05:29:14.329Z,0
2017-01-26T05:30:14.417Z,0
2017-01-26T05:31:14.196Z,0
2017-01-26T05:32:15.547Z,0
2017-01-26T05:33:14.342Z,0
2017-01-26T05:34:13.682Z,0
2017-01-26T05:35:14.057Z,0
2017-01-26T05:36:14.971Z,0
2017-01-26T05:37:15.507Z,0
2017-01-26T05:38:14.204Z,0
2017-01-26T05:39:13.816Z,0
2017-01-26T05:40:14.493Z,0
2017-01-26T05:41:15.959Z,0
2017-01-26T05:42:15.485Z,0
2017-01-26T05:43:13.964Z,0
2017-01-26T05:44:16.082Z,0
2017-01-26T05:45:13.142Z,0
2017-01-26T05:46:16.118Z,0
2017-01-26T05:47:15.465Z,0
2017-01-26T05:48:14.030Z,0
2017-01-26T05:49:13.811Z,0
2017-01-26T05:50:14.258Z,0
2017-01-26T05:51:15.580Z,0
2017-01-26T05:52:14.537Z,0
2017-01-26T05:53:13.801Z,0
2017-01-26T05:54:15.511Z,0
2017-01-26T05:55:14.432Z,0
2017-01-26T05:56:13.373Z,0
2017-01-26T05:57:15.551Z,0
2017-01-26T05:58:15.111Z,0
2017-01-26T05:59:14.824Z,0
2017-01-26T06:00:13.862Z,0
2017-01-26T06:01:15.915Z,0
2017-01-26T06:02:15.080Z,0
2017-01-26T06:03:15.355Z,0
2017-01-26T06:04:15.251Z,0
2017-01-26T06:05:13.816Z,0
2017-01-26T06:06:14.653Z,0
2017-01-26T06:07:14.655Z,0
2017-01-26T06:08:15.303Z,0
2017-01-26T06:09:14.537Z,0
2017-01-26T06:10:14.697Z,0
2017-01-26T06:11:13.898Z,0
2017-01-26T06:12:14.725Z,0
2017-01-26T06:13:15.960Z,0
2017-01-26T06:14:14.474Z,0
2017-01-26T06:15:15.113Z,0
2017-01-26T06:16:14.156Z,0
2017-01-26T06:17:15.547Z,0
2017-01-26T06:18:14.698Z,0
2017-01-26T06:19:18.277Z,0
2017-01-26T06:20:14.535Z,0
2017-01-26T06:21:18.016Z,0
2017-01-26T06:22:14.753Z,0
2017-01-26T06:23:15.168Z,0
2017-01-26T06:24:13.789Z,0
2017-01-26T06:25:15.012Z,0
2017-01-26T06:26:15.242Z,0
2017-01-26T06:27:14.973Z,0
2017-01-26T06:28:14.460Z,0
2017-01-26T06:29:16.047Z,0
2017-01-26T06:30:15.533Z,0
2017-01-26T06:31:13.514Z,0
2017-01-26T06:32:14.669Z,0
2017-01-26T06:33:16.052Z,4
2017-01-26T06:34:14.606Z,4
2017-01-26T06:35:15.143Z,0
2017-01-26T06:36:14.059Z,4
2017-01-26T06:37:17.587Z,4
2017-01-26T06:38:16.656Z,4
2017-01-26T06:39:16.645Z,4
2017-01-26T06:40:15.768Z,4
2017-01-26T06:41:17.859Z,4
2017-01-26T06:42:16.525Z,4
2017-01-26T06:43:14.765Z,8
2017-01-26T06:44:15.948Z,8
2017-01-26T06:45:14.400Z,12
2017-01-26T06:46:13.833Z,12
2017-01-26T06:47:15.420Z,16
2017-01-26T06:48:15.376Z,20
2017-01-26T06:49:14.543Z,20
2017-01-26T06:50:15.508Z,20
2017-01-26T06:51:16.361Z,24
2017-01-26T06:52:12.697Z,32
2017-01-26T06:53:13.973Z,32
2017-01-26T06:54:14.791Z,40
2017-01-26T06:55:15.987Z,44
2017-01-26T06:56:16.277Z,52
2017-01-26T06:57:14.300Z,60
2017-01-26T06:58:15.222Z,72
2017-01-26T06:59:15.971Z,80
2017-01-26T07:00:15.016Z,92
2017-01-26T07:01:15.444Z,104
2017-01-26T07:02:16.090Z,120
2017-01-26T07:03:14.966Z,144
2017-01-26T07:04:14.928Z,164
2017-01-26T07:05:13.847Z,188
2017-01-26T07:06:13.653Z,212
2017-01-26T07:07:13.952Z,244
2017-01-26T07:08:14.168Z,268
2017-01-26T07:09:13.614Z,284
2017-01-26T07:10:14.765Z,300
2017-01-26T07:11:14.276Z,332
2017-01-26T07:12:15.773Z,372
2017-01-26T07:13:13.621Z,408
2017-01-26T07:14:15.131Z,456
2017-01-26T07:15:14.757Z,492
2017-01-26T07:16:15.287Z,540
2017-01-26T07:17:16.213Z,576
2017-01-26T07:18:15.103Z,612
2017-01-26T07:19:15.646Z,656
2017-01-26T07:20:14.510Z,704
2017-01-26T07:21:14.069Z,752
2017-01-26T07:22:16.010Z,800
2017-01-26T07:23:15.074Z,848
2017-01-26T07:24:15.025Z,888
2017-01-26T07:25:15.019Z,940
2017-01-26T07:26:15.991Z,988
2017-01-26T07:27:15.293Z,1032
2017-01-26T07:28:16.742Z,1080
2017-01-26T07:29:15.104Z,1124
2017-01-26T07:30:15.680Z,1172
2017-01-26T07:31:16.150Z,1224
2017-01-26T07:32:14.909Z,1276
2017-01-26T07:33:16.136Z,1324
2017-01-26T07:34:15.539Z,1376
2017-01-26T07:35:15.500Z,1424
2017-01-26T07:36:14.361Z,1472
2017-01-26T07:37:15.461Z,1520
2017-01-26T07:38:14.714Z,1568
2017-01-26T07:39:15.881Z,1624
2017-01-26T07:40:15.731Z,1672
2017-01-26T07:41:14.725Z,1716
2017-01-26T07:42:16.195Z,1780
2017-01-26T07:43:14.933Z,1832
2017-01-26T07:44:14.781Z,1880
2017-01-26T07:45:15.476Z,1924
2017-01-26T07:46:16.503Z,2004
2017-01-26T07:47:15.239Z,2056
2017-01-26T07:48:14.234Z,2100
2017-01-26T07:49:15.756Z,2176
2017-01-26T07:50:15.118Z,2268
2017-01-26T07:51:15.823Z,2336
2017-01-26T07:52:15.861Z,2392
2017-01-26T07:53:15.877Z,2512
2017-01-26T07:54:14.750Z,2612
2017-01-26T07:55:16.533Z,2624
2017-01-26T07:56:14.673Z,2708
2017-01-26T07:57:15.329Z,2852
2017-01-26T07:58:15.130Z,3060
2017-01-26T07:59:15.624Z,3148
2017-01-26T08:00:16.127Z,3160
2017-01-26T08:01:16.242Z,3484
2017-01-26T08:02:15.864Z,3644
2017-01-26T08:03:15.407Z,3596
2017-01-26T08:04:15.652Z,3632
2017-01-26T08:05:15.652Z,3892
2017-01-26T08:06:16.022Z,3912
2017-01-26T08:07:15.306Z,3748
2017-01-26T08:08:15.334Z,3956
2017-01-26T08:09:15.399Z,3984
2017-01-26T08:10:15.375Z,3800
2017-01-26T08:11:16.192Z,3948
2017-01-26T08:12:14.743Z,4216
2017-01-26T08:13:15.147Z,4044
2017-01-26T08:14:17.124Z,4360
2017-01-26T08:15:15.593Z,4852
2017-01-26T08:16:17.233Z,5152
2017-01-26T08:17:16.058Z,5068
2017-01-26T08:18:15.212Z,4768
2017-01-26T08:19:15.188Z,4580
2017-01-26T08:20:15.435Z,4236
2017-01-26T08:21:15.842Z,4040
2017-01-26T08:22:15.174Z,3920
2017-01-26T08:23:15.207Z,3884
2017-01-26T08:24:15.415Z,3900
2017-01-26T08:25:15.378Z,3928
2017-01-26T08:26:14.842Z,3840
2017-01-26T08:27:14.537Z,3912
2017-01-26T08:28:15.581Z,3932
2017-01-26T08:29:15.320Z,3900
2017-01-26T08:30:16.443Z,3876
2017-01-26T08:31:15.367Z,3852
2017-01-26T08:32:15.802Z,3888
2017-01-26T08:33:15.457Z,4024
2017-01-26T08:34:16.190Z,4044
2017-01-26T08:35:17.397Z,3928
2017-01-26T08:36:15.250Z,3848
2017-01-26T08:37:16.512Z,3968
2017-01-26T08:38:16.131Z,4112
2017-01-26T08:39:15.847Z,4104
2017-01-26T08:40:15.743Z,4124
2017-01-26T08:41:15.700Z,4212
2017-01-26T08:42:17.182Z,4280
2017-01-26T08:43:16.600Z,4388
2017-01-26T08:44:16.230Z,4456
2017-01-26T08:45:15.796Z,4444
2017-01-26T08:46:16.283Z,4440
2017-01-26T08:47:16.775Z,4480
2017-01-26T08:48:15.206Z,4536
2017-01-26T08:49:15.421Z,4564
2017-01-26T08:50:16.043Z,4592
2017-01-26T08:51:15.206Z,4600
2017-01-26T08:52:16.524Z,4636
2017-01-26T08:53:16.241Z,4676
2017-01-26T08:54:17.342Z,4712
2017-01-26T08:55:17.317Z,4744
2017-01-26T08:56:16.077Z,4764
2017-01-26T08:57:15.589Z,4792
2017-01-26T08:58:15.193Z,4792
2017-01-26T08:59:17.235Z,4820
2017-01-26T09:00:16.831Z,4844
2017-01-26T09:01:15.528Z,4844
2017-01-26T09:02:15.954Z,4844
2017-01-26T09:03:16.271Z,4860
2017-01-26T09:04:16.979Z,4884
2017-01-26T09:05:15.572Z,4888
2017-01-26T09:06:16.192Z,4896
2017-01-26T09:07:16.286Z,4900
2017-01-26T09:08:15.786Z,4948
2017-01-26T09:09:16.088Z,4988
2017-01-26T09:10:15.795Z,5040
2017-01-26T09:11:16.132Z,5048
2017-01-26T09:12:16.317Z,5084
2017-01-26T09:13:16.366Z,5152
2017-01-26T09:14:16.095Z,5220
2017-01-26T09:15:15.690Z,5288
2017-01-26T09:16:15.562Z,5320
2017-01-26T09:17:16.538Z,5360
2017-01-26T09:18:16.039Z,5356
2017-01-26T09:19:16.055Z,5396
2017-01-26T09:20:16.267Z,5432
2017-01-26T09:21:15.576Z,5452
2017-01-26T09:22:16.470Z,5512
2017-01-26T09:23:16.393Z,5556
2017-01-26T09:24:15.780Z,5556
2017-01-26T09:25:15.976Z,5612
2017-01-26T09:26:16.979Z,5628
2017-01-26T09:27:16.435Z,5620
2017-01-26T09:28:15.945Z,5672
2017-01-26T09:29:15.502Z,5644
2017-01-26T09:30:16.807Z,5684
2017-01-26T09:31:16.337Z,5684
2017-01-26T09:32:16.951Z,5680
2017-01-26T09:33:17.198Z,5616
2017-01-26T09:34:17.326Z,5644
2017-01-26T09:35:16.390Z,5528
2017-01-26T09:36:17.603Z,5624
2017-01-26T09:37:16.223Z,5668
2017-01-26T09:38:17.840Z,5544
2017-01-26T09:39:16.663Z,5612
2017-01-26T09:40:16.149Z,5628
2017-01-26T09:41:17.222Z,5664
2017-01-26T09:42:15.872Z,5688
2017-01-26T09:43:17.127Z,5652
2017-01-26T09:44:17.343Z,5724
2017-01-26T09:45:17.708Z,5720
2017-01-26T09:46:15.974Z,5672
2017-01-26T09:47:17.525Z,5712
2017-01-26T09:48:16.889Z,5696
2017-01-26T09:49:17.085Z,5660
2017-01-26T09:50:17.717Z,5360
2017-01-26T09:51:15.717Z,5612
2017-01-26T09:52:16.086Z,5628
2017-01-26T09:53:16.682Z,5644
2017-01-26T09:54:16.626Z,5672
2017-01-26T09:55:16.668Z,5684
2017-01-26T09:56:17.197Z,5692
2017-01-26T09:57:18.218Z,5704
2017-01-26T09:58:17.010Z,5680
2017-01-26T09:59:16.898Z,5684
2017-01-26T10:00:16.820Z,5684
2017-01-26T10:01:16.774Z,5692
2017-01-26T10:02:16.682Z,5716
2017-01-26T10:03:16.568Z,5696
2017-01-26T10:04:16.369Z,5696
2017-01-26T10:05:17.720Z,5704
2017-01-26T10:06:17.479Z,5684
2017-01-26T10:07:16.112Z,5692
2017-01-26T10:08:18.121Z,5688
2017-01-26T10:09:16.781Z,5676
2017-01-26T10:10:16.820Z,5688
2017-01-26T10:11:16.703Z,5544
2017-01-26T10:12:16.490Z,5512
2017-01-26T10:13:16.398Z,5532
2017-01-26T10:14:16.773Z,5628
2017-01-26T10:15:18.202Z,5668
2017-01-26T10:16:16.189Z,5672
2017-01-26T10:17:17.715Z,5712
2017-01-26T10:18:17.128Z,5728
2017-01-26T10:19:17.904Z,5732
2017-01-26T10:20:18.815Z,5752
2017-01-26T10:21:17.646Z,5804
2017-01-26T10:22:17.016Z,5832
2017-01-26T10:23:16.237Z,5872
2017-01-26T10:24:17.202Z,5900
2017-01-26T10:25:16.544Z,5912
2017-01-26T10:26:17.290Z,5924
2017-01-26T10:27:18.187Z,5924
2017-01-26T10:28:17.344Z,5936
2017-01-26T10:29:16.836Z,5928
2017-01-26T10:30:18.082Z,5940
2017-01-26T10:31:16.960Z,5968
2017-01-26T10:32:17.166Z,5960
2017-01-26T10:33:16.896Z,5968
2017-01-26T10:34:17.220Z,5980
2017-01-26T10:35:17.796Z,6024
2017-01-26T10:36:17.080Z,6016
2017-01-26T10:37:18.773Z,5984
2017-01-26T10:38:16.859Z,5972
2017-01-26T10:39:16.696Z,5976
2017-01-26T10:40:16.529Z,6000
2017-01-26T10:41:17.757Z,5992
2017-01-26T10:42:17.543Z,6012
2017-01-26T10:43:17.697Z,6028
2017-01-26T10:44:16.986Z,6024
2017-01-26T10:45:18.160Z,6004
2017-01-26T10:46:17.695Z,6040
2017-01-26T10:47:17.755Z,6092
2017-01-26T10:48:16.767Z,6064
2017-01-26T10:49:17.032Z,6064
2017-01-26T10:50:17.819Z,6108
2017-01-26T10:51:17.895Z,6068
2017-01-26T10:52:17.653Z,6068
2017-01-26T10:53:18.135Z,6092
2017-01-26T10:54:18.439Z,6108
2017-01-26T10:55:18.601Z,6116
2017-01-26T10:56:18.518Z,6108
2017-01-26T10:57:18.958Z,6128
2017-01-26T10:58:18.415Z,6100
2017-01-26T10:59:16.969Z,6060
2017-01-26T11:00:17.790Z,6084
2017-01-26T11:01:18.160Z,6088
2017-01-26T11:02:19.544Z,6092
2017-01-26T11:03:17.315Z,6064
2017-01-26T11:04:19.540Z,6016
2017-01-26T11:05:17.737Z,5996
2017-01-26T11:06:18.712Z,5988
2017-01-26T11:07:18.676Z,5964
2017-01-26T11:08:17.914Z,6008
2017-01-26T11:09:17.894Z,6000
2017-01-26T11:10:18.310Z,6000
2017-01-26T11:11:20.135Z,6000
2017-01-26T11:12:17.727Z,5980
2017-01-26T11:13:17.811Z,5972
2017-01-26T11:14:18.836Z,5964
2017-01-26T11:15:19.298Z,5960
2017-01-26T11:16:18.218Z,5964
2017-01-26T11:17:20.342Z,5960
2017-01-26T11:18:17.790Z,5940
2017-01-26T11:19:19.730Z,5940
2017-01-26T11:20:18.022Z,5932
2017-01-26T11:21:18.409Z,5920
2017-01-26T11:22:18.092Z,5976
2017-01-26T11:23:18.311Z,5968
2017-01-26T11:24:18.891Z,5944
2017-01-26T11:25:18.345Z,5964
2017-01-26T11:26:18.532Z,5996
2017-01-26T11:27:18.730Z,5964
2017-01-26T11:28:18.283Z,5964
2017-01-26T11:29:18.656Z,5956
2017-01-26T11:30:18.887Z,5984
2017-01-26T11:31:18.717Z,6008
2017-01-26T11:32:17.836Z,5972
2017-01-26T11:33:19.583Z,5960
2017-01-26T11:34:19.229Z,5928
2017-01-26T11:35:18.523Z,5920
2017-01-26T11:36:18.534Z,5956
2017-01-26T11:37:18.757Z,5944
2017-01-26T11:38:54.344Z,5904
2017-01-26T11:39:35.419Z,5912
2017-01-26T11:40:34.551Z,5876
2017-01-26T11:41:35.657Z,5864
2017-01-26T11:42:35.101Z,5832
2017-01-26T11:43:35.083Z,5836
2017-01-26T11:44:34.332Z,5860
2017-01-26T11:45:35.295Z,5844
2017-01-26T11:46:36.753Z,5828
2017-01-26T11:47:36.150Z,5824
2017-01-26T11:48:35.913Z,5812
2017-01-26T11:49:34.042Z,5824
2017-01-26T11:50:36.047Z,5808
2017-01-26T11:51:34.493Z,5808
2017-01-26T11:52:36.218Z,5800
2017-01-26T11:53:35.245Z,5800
2017-01-26T11:54:34.944Z,5776
2017-01-26T11:55:35.551Z,5788
2017-01-26T11:56:35.928Z,5784
2017-01-26T11:57:35.248Z,5768
2017-01-26T11:58:35.983Z,5772
2017-01-26T11:59:34.982Z,5776
2017-01-26T12:00:35.157Z,5748
2017-01-26T12:01:35.133Z,5744
2017-01-26T12:02:35.262Z,5716
2017-01-26T12:03:35.352Z,5736
2017-01-26T12:04:35.086Z,5736
2017-01-26T12:05:36.205Z,5724
2017-01-26T12:06:34.307Z,5724
2017-01-26T12:07:35.761Z,5728
2017-01-26T12:08:36.771Z,5720
2017-01-26T12:09:35.632Z,5692
2017-01-26T12:10:35.958Z,5724
2017-01-26T12:11:35.380Z,5704
2017-01-26T12:12:35.780Z,5712
2017-01-26T12:13:35.687Z,5684
2017-01-26T12:14:36.382Z,5656
2017-01-26T12:15:35.052Z,5644
2017-01-26T12:16:35.722Z,5628
2017-01-26T12:17:35.092Z,5628
2017-01-26T12:18:36.615Z,5624
2017-01-26T12:19:34.906Z,5624
2017-01-26T12:20:35.939Z,5596
2017-01-26T12:21:35.913Z,5604
2017-01-26T12:22:35.287Z,5568
2017-01-26T12:23:36.542Z,5584
2017-01-26T12:24:35.900Z,5556
2017-01-26T12:25:35.657Z,5520
2017-01-26T12:26:35.810Z,5496
2017-01-26T12:27:35.404Z,5484
2017-01-26T12:28:36.036Z,5480
2017-01-26T12:29:36.902Z,5472
2017-01-26T12:30:35.635Z,5456
2017-01-26T12:31:35.193Z,5452
2017-01-26T12:32:35.476Z,5444
2017-01-26T12:33:36.131Z,5444
2017-01-26T12:34:35.692Z,5408
2017-01-26T12:35:35.894Z,5400
2017-01-26T12:36:36.256Z,5388
2017-01-26T12:37:36.361Z,5372
2017-01-26T12:38:35.775Z,5336
2017-01-26T12:39:35.861Z,5328
2017-01-26T12:40:36.030Z,5332
2017-01-26T12:41:36.499Z,5308
2017-01-26T12:42:37.127Z,5300
2017-01-26T12:43:35.800Z,5292
2017-01-26T12:44:36.682Z,5292
2017-01-26T12:45:35.020Z,5284
2017-01-26T12:46:35.605Z,5292
2017-01-26T12:47:36.063Z,5280
2017-01-26T12:48:35.416Z,5264
2017-01-26T12:49:35.978Z,5252
2017-01-26T12:50:36.189Z,5256
2017-01-26T12:51:36.626Z,5248
2017-01-26T12:52:36.438Z,5204
2017-01-26T12:53:36.838Z,5200
2017-01-26T12:54:35.904Z,5192
2017-01-26T12:55:35.935Z,5196
2017-01-26T12:56:37.265Z,5172
2017-01-26T12:57:36.693Z,5144
2017-01-26T12:58:35.897Z,5124
2017-01-26T12:59:36.907Z,5120
2017-01-26T13:00:36.647Z,5112
2017-01-26T13:01:36.156Z,5100
2017-01-26T13:02:36.113Z,5076
2017-01-26T13:03:36.354Z,5072
2017-01-26T13:04:37.856Z,5072
2017-01-26T13:05:38.231Z,5060
2017-01-26T13:06:36.228Z,5040
2017-01-26T13:07:36.055Z,5032
2017-01-26T13:08:35.687Z,5040
2017-01-26T13:09:36.539Z,5020
2017-01-26T13:10:35.791Z,5028
2017-01-26T13:11:38.210Z,4992
2017-01-26T13:12:35.728Z,4976
2017-01-26T13:13:37.439Z,4976
2017-01-26T13:14:36.437Z,4976
2017-01-26T13:15:36.764Z,4948
2017-01-26T13:16:36.786Z,4960
2017-01-26T13:17:37.118Z,4968
2017-01-26T13:18:36.684Z,4964
2017-01-26T13:19:36.232Z,4940
2017-01-26T13:20:37.061Z,4924
2017-01-26T13:21:37.747Z,4900
2017-01-26T13:22:36.424Z,4904
2017-01-26T13:23:36.652Z,4896
2017-01-26T13:24:36.457Z,4872
2017-01-26T13:25:36.488Z,4856
2017-01-26T13:27:37.322Z,4856
2017-01-26T13:28:37.609Z,4852
2017-01-26T13:29:38.275Z,4844
2017-01-26T13:30:37.698Z,4816
2017-01-26T13:31:37.207Z,4816
2017-01-26T13:32:37.758Z,4800
2017-01-26T13:33:36.539Z,4784
2017-01-26T13:34:37.738Z,4768
2017-01-26T13:35:38.056Z,4768
2017-01-26T13:36:37.810Z,4760
2017-01-26T13:37:39.329Z,4712
2017-01-26T13:38:39.113Z,4684
2017-01-26T13:39:38.016Z,4672
2017-01-26T13:40:37.799Z,4644
2017-01-26T13:41:38.672Z,4648
2017-01-26T13:42:38.616Z,4636
2017-01-26T13:43:38.241Z,4628
2017-01-26T13:44:38.397Z,4612
2017-01-26T13:45:38.967Z,4600
2017-01-26T13:46:37.801Z,4580
2017-01-26T13:47:38.217Z,4560
2017-01-26T13:48:38.617Z,4520
2017-01-26T13:49:38.120Z,4516
2017-01-26T13:50:37.783Z,4500
2017-01-26T13:51:38.738Z,4484
2017-01-26T13:52:38.577Z,4456
2017-01-26T13:53:37.971Z,4440
2017-01-26T13:54:39.071Z,4452
2017-01-26T13:55:39.902Z,4412
2017-01-26T13:56:38.900Z,4384
2017-01-26T13:57:38.131Z,4388
2017-01-26T13:58:38.537Z,4384
2017-01-26T13:59:37.838Z,4348
2017-01-26T14:00:38.964Z,4320
2017-01-26T14:01:38.295Z,4312